East McKeesport, Pennsylvania
Current Conditions -  °F | °C
As of 9:53 AM on Monday 22 Dec 2014 (Local Time) from KAGC Reporting Station
Haze Haze  
Wind Chill: 26°   Ceiling: 4400
Heat Index: 32°   Visibility: 5mi
Dew Point: 24°   Wind: 6mph
Humidity: 73%   Direction: 80°E
Pressure: 30.11"   Gusts: NA
Location:  40.38°N, 79.81°W
Report Text: KAGC 221453Z 08005KT 5SM HZ OVC044 00/M04 A3011 RMK AO2 SLP216 T00001044 51001
Loading
Personal Weather Stations






























Interactive Weather Map New forecast layout! Learn more

10-Day Weather Forecast

Advertisements
Track Severe Weather on mobile